Terminal Aerodrome Forecast
Issued by NWS

Home | Current Version | Previous Version | Text Only | Print | Product List | Glossary On
Versions: 1 2 3 4 5 6 7 8 9 10 11 12 13 14 15 16 17 18 19
000
FTUS43 KICT 011739
TAFCNU
TAF
KCNU 011739Z 0118/0218 19014KT P6SM SCT250
     FM020100 16007KT P6SM BKN120
     FM020500 18010KT P6SM SCT120
     FM021500 18015G22KT P6SM SCT120=

USA.gov is the U.S. government's official web portal to all federal, state and local government web resources and services.